createdAt,value
2022-10-22T04:50:46.834Z,29.10
2022-10-22T04:51:47.961Z,67.10
2022-10-22T04:52:47.939Z,98.90
2022-10-22T04:53:47.910Z,67.00
2022-10-22T04:54:47.905Z,54.00
2022-10-22T04:55:47.912Z,60.80
2022-10-22T04:56:47.901Z,62.80
2022-10-22T04:57:47.893Z,83.70
2022-10-22T04:58:47.889Z,95.40
2022-10-22T04:59:47.882Z,63.00
2022-10-22T05:00:47.954Z,84.80
2022-10-22T05:01:47.867Z,86.10
2022-10-22T05:02:48.849Z,90.40
2022-10-22T05:03:47.854Z,89.90
2022-10-22T05:04:47.845Z,92.90
2022-10-22T05:05:47.922Z,60.50
2022-10-22T05:06:47.847Z,103.60
2022-10-22T05:07:47.830Z,101.60
2022-10-22T05:08:47.877Z,67.40
2022-10-22T05:09:47.861Z,81.30
2022-10-22T05:10:47.820Z,83.20
2022-10-22T05:11:47.816Z,93.90
2022-10-22T05:12:47.798Z,74.10
2022-10-22T05:13:48.569Z,57.00
2022-10-22T05:14:47.821Z,113.50
2022-10-22T05:15:47.782Z,101.70
2022-10-22T05:16:48.275Z,75.60
2022-10-22T05:17:47.789Z,104.10
2022-10-22T05:18:47.758Z,71.30
2022-10-22T05:19:47.750Z,88.90
2022-10-22T05:20:47.779Z,77.10
2022-10-22T05:21:47.787Z,105.90
2022-10-22T05:22:47.744Z,116.90
2022-10-22T05:23:47.729Z,127.10
2022-10-22T05:24:47.766Z,98.90
2022-10-22T05:25:47.721Z,64.90
2022-10-22T05:26:47.713Z,76.40
2022-10-22T05:27:47.702Z,119.30
2022-10-22T05:28:47.738Z,75.90
2022-10-22T05:29:47.697Z,76.80
2022-10-22T05:30:47.685Z,96.50
2022-10-22T05:31:47.681Z,101.00
2022-10-22T05:32:47.695Z,76.90
2022-10-22T05:33:47.681Z,78.10
2022-10-22T05:34:47.675Z,92.00
2022-10-22T05:35:47.674Z,109.10
2022-10-22T05:36:47.662Z,81.10
2022-10-22T05:37:47.696Z,77.80
2022-10-22T05:38:47.625Z,100.50
2022-10-22T05:39:47.638Z,78.10
2022-10-22T05:40:47.641Z,63.90
2022-10-22T05:41:47.617Z,63.30
2022-10-22T05:42:47.617Z,111.50
2022-10-22T05:43:47.601Z,97.60
2022-10-22T05:44:47.597Z,52.10
2022-10-22T05:45:47.606Z,92.10
2022-10-22T05:46:47.606Z,87.00
2022-10-22T05:47:47.593Z,101.20
2022-10-22T05:48:47.582Z,99.20
2022-10-22T05:49:47.581Z,83.50
2022-10-22T05:50:47.570Z,63.00
2022-10-22T05:51:47.557Z,73.90
2022-10-22T05:52:47.553Z,87.90
2022-10-22T05:53:47.559Z,83.80
2022-10-22T05:54:47.537Z,59.40
2022-10-22T05:55:47.526Z,80.20
2022-10-22T05:56:47.526Z,78.70
2022-10-22T05:57:47.514Z,73.60
2022-10-22T05:58:47.567Z,68.50
2022-10-22T05:59:47.499Z,77.10
2022-10-22T06:00:47.493Z,79.50
2022-10-22T06:01:47.535Z,94.20
2022-10-22T06:02:47.493Z,87.10
2022-10-22T06:03:47.514Z,77.50
2022-10-22T06:04:47.496Z,94.00
2022-10-22T06:05:47.478Z,123.40
2022-10-22T06:06:47.536Z,88.40
2022-10-22T06:07:47.460Z,102.60
2022-10-22T06:08:47.537Z,79.70
2022-10-22T06:09:47.460Z,85.00
2022-10-22T06:10:47.444Z,82.50
2022-10-22T06:11:47.450Z,77.40
2022-10-22T06:12:47.427Z,78.50
2022-10-22T06:13:47.436Z,67.90
2022-10-22T06:14:47.435Z,76.60
2022-10-22T06:15:47.419Z,69.00
2022-10-22T06:16:47.413Z,91.00
2022-10-22T06:17:47.403Z,66.60
2022-10-22T06:18:47.395Z,71.80
2022-10-22T06:19:47.406Z,60.00
2022-10-22T06:20:47.395Z,68.80
2022-10-22T06:21:47.381Z,73.10
2022-10-22T06:22:47.388Z,78.00
2022-10-22T06:23:47.374Z,72.60
2022-10-22T06:24:47.379Z,70.00
2022-10-22T06:25:47.358Z,53.60
2022-10-22T06:26:47.351Z,49.60
2022-10-22T06:27:47.355Z,54.50
2022-10-22T06:28:47.347Z,46.30
2022-10-22T06:29:47.352Z,44.20
2022-10-22T06:30:47.319Z,37.10
2022-10-22T06:31:47.329Z,39.20
2022-10-22T06:32:47.310Z,32.70
2022-10-22T06:33:47.322Z,31.60
2022-10-22T06:34:47.319Z,30.70
2022-10-22T06:35:48.054Z,31.00
2022-10-22T06:36:47.296Z,25.90
2022-10-22T06:37:47.286Z,29.40
2022-10-22T06:38:47.274Z,26.20
2022-10-22T06:39:47.270Z,23.40
2022-10-22T06:40:47.254Z,23.20
2022-10-22T06:41:47.247Z,23.50
2022-10-22T06:42:47.262Z,24.60
2022-10-22T06:43:47.231Z,20.60
2022-10-22T06:44:47.238Z,16.00
2022-10-22T06:45:47.266Z,17.10
2022-10-22T06:46:47.213Z,16.70
2022-10-22T06:47:47.226Z,19.40
2022-10-22T06:48:47.204Z,19.80
2022-10-22T06:49:47.198Z,20.10
2022-10-22T06:50:47.210Z,18.90
2022-10-22T06:51:47.189Z,19.60
2022-10-22T06:52:47.173Z,19.90
2022-10-22T06:53:47.173Z,15.70
2022-10-22T06:54:47.157Z,20.70
2022-10-22T06:55:47.197Z,33.30
2022-10-22T06:56:47.170Z,47.40
2022-10-22T06:57:47.162Z,13.80
2022-10-22T06:58:47.138Z,27.50
2022-10-22T06:59:47.141Z,115.00
2022-10-22T07:00:47.176Z,67.90
2022-10-22T07:01:47.202Z,43.80
2022-10-22T07:02:47.114Z,34.10
2022-10-22T07:03:47.109Z,31.50
2022-10-22T07:04:47.113Z,14.50
2022-10-22T07:05:47.241Z,35.90
2022-10-22T07:06:47.102Z,29.90
2022-10-22T07:07:47.088Z,20.40
2022-10-22T07:08:47.161Z,18.70
2022-10-22T07:09:47.113Z,20.40
2022-10-22T07:10:47.197Z,16.30
2022-10-22T07:11:47.068Z,19.00
2022-10-22T07:12:47.062Z,23.50
2022-10-22T07:13:47.072Z,11.30
2022-10-22T07:14:47.047Z,35.20
2022-10-22T07:15:47.113Z,23.40
2022-10-22T07:16:47.050Z,15.60
2022-10-22T07:17:47.028Z,19.70
2022-10-22T07:18:47.065Z,14.00
2022-10-22T07:19:49.698Z,11.10
2022-10-22T07:20:48.003Z,10.60
2022-10-22T07:21:47.019Z,11.80
2022-10-22T07:22:46.987Z,13.80
2022-10-22T07:23:47.014Z,9.60
2022-10-22T07:24:46.975Z,8.60
2022-10-22T07:25:46.993Z,8.10
2022-10-22T07:26:47.027Z,7.90
2022-10-22T07:27:46.952Z,9.60
2022-10-22T07:28:46.979Z,10.10
2022-10-22T07:29:46.951Z,8.70
2022-10-22T07:30:46.953Z,7.50
2022-10-22T07:31:46.949Z,6.60
2022-10-22T07:32:46.917Z,7.70
2022-10-22T07:33:46.938Z,6.70
2022-10-22T07:34:46.908Z,8.60
2022-10-22T07:35:46.916Z,7.70
2022-10-22T07:36:46.901Z,6.50
2022-10-22T07:37:46.923Z,6.10
2022-10-22T07:38:46.910Z,5.60
2022-10-22T07:39:46.878Z,5.80
2022-10-22T07:40:46.921Z,10.90
2022-10-22T07:41:46.919Z,5.90
2022-10-22T07:42:46.953Z,5.60
2022-10-22T07:43:46.868Z,4.80
2022-10-22T07:44:46.856Z,6.50
2022-10-22T07:45:46.866Z,8.10
2022-10-22T07:46:48.909Z,6.70
2022-10-22T07:47:46.818Z,7.30
2022-10-22T07:48:46.854Z,9.60
2022-10-22T07:49:46.811Z,7.20
2022-10-22T07:50:46.822Z,7.00
2022-10-22T07:51:46.863Z,5.20
2022-10-22T07:52:46.821Z,7.10
2022-10-22T07:53:46.794Z,5.50
2022-10-22T07:54:46.792Z,5.90
2022-10-22T07:55:46.781Z,7.60
2022-10-22T07:56:46.773Z,7.10
2022-10-22T07:57:46.780Z,7.40
2022-10-22T07:58:46.998Z,7.00
2022-10-22T07:59:46.773Z,8.20
2022-10-22T08:00:47.771Z,13.40
2022-10-22T08:01:46.783Z,9.10
2022-10-22T08:02:47.796Z,7.20
2022-10-22T08:03:47.614Z,5.00
2022-10-22T08:04:48.233Z,6.70
2022-10-22T08:05:46.726Z,7.80
2022-10-22T08:06:47.433Z,8.00
2022-10-22T08:07:47.577Z,7.30
2022-10-22T08:08:46.747Z,7.60
2022-10-22T08:09:46.696Z,8.50
2022-10-22T08:10:46.687Z,15.60
2022-10-22T08:11:46.698Z,15.80
2022-10-22T08:12:46.679Z,11.50
2022-10-22T08:13:46.693Z,8.90
2022-10-22T08:14:46.657Z,9.30
2022-10-22T08:15:46.656Z,8.60
2022-10-22T08:16:46.632Z,6.70
2022-10-22T08:17:46.670Z,6.30
2022-10-22T08:18:46.626Z,7.00
2022-10-22T08:19:46.647Z,6.20
2022-10-22T08:20:46.626Z,8.40
2022-10-22T08:21:46.599Z,13.90
2022-10-22T08:22:46.608Z,10.30
2022-10-22T08:23:46.603Z,7.80
2022-10-22T08:24:46.632Z,22.80
2022-10-22T08:25:46.597Z,7.50
2022-10-22T08:26:46.594Z,6.70
2022-10-22T08:27:46.580Z,6.60
2022-10-22T08:28:46.572Z,7.50
2022-10-22T08:29:47.175Z,6.40
2022-10-22T08:30:46.560Z,6.20
2022-10-22T08:31:46.543Z,9.00
2022-10-22T08:32:47.680Z,8.00
2022-10-22T08:33:46.554Z,7.80
2022-10-22T08:34:46.538Z,10.40
2022-10-22T08:35:46.558Z,10.00
2022-10-22T08:36:46.521Z,15.90
2022-10-22T08:37:46.511Z,7.40
2022-10-22T08:38:46.494Z,9.10
2022-10-22T08:39:47.090Z,12.80
2022-10-22T08:40:46.540Z,10.80
2022-10-22T08:41:46.496Z,7.80
2022-10-22T08:42:46.478Z,7.90
2022-10-22T08:43:46.475Z,9.40
2022-10-22T08:44:46.452Z,13.80
2022-10-22T08:45:46.470Z,11.20
2022-10-22T08:46:46.525Z,12.30
2022-10-22T08:47:47.088Z,10.30
2022-10-22T08:48:47.477Z,8.30
2022-10-22T08:49:46.422Z,44.90
2022-10-22T08:50:46.459Z,10.70
2022-10-22T08:51:46.441Z,15.80
2022-10-22T08:52:46.447Z,7.10
2022-10-22T08:53:46.391Z,7.80
2022-10-22T08:54:47.128Z,9.80
2022-10-22T08:55:46.420Z,10.60
2022-10-22T08:56:46.416Z,10.20
2022-10-22T08:57:48.720Z,11.80
2022-10-22T08:58:47.988Z,8.60
2022-10-22T08:59:46.409Z,11.20
2022-10-22T09:00:46.384Z,9.10
2022-10-22T09:01:46.360Z,9.10
2022-10-22T09:02:46.400Z,10.30
2022-10-22T09:03:46.432Z,9.80
2022-10-22T09:04:46.354Z,10.20
2022-10-22T09:05:46.377Z,10.30
2022-10-22T09:06:49.496Z,10.40
2022-10-22T09:07:47.334Z,11.60
2022-10-22T09:08:46.377Z,10.00
2022-10-22T09:09:46.293Z,11.40
2022-10-22T09:10:46.393Z,8.90
2022-10-22T09:11:46.336Z,10.30
2022-10-22T09:12:47.139Z,10.60
2022-10-22T09:13:46.269Z,9.30
2022-10-22T09:14:46.326Z,9.40
2022-10-22T09:15:47.370Z,11.00
2022-10-22T09:16:47.259Z,10.90
2022-10-22T09:17:46.234Z,12.30
2022-10-22T09:18:46.272Z,12.20
2022-10-22T09:19:46.246Z,10.60
2022-10-22T09:20:46.214Z,10.70
2022-10-22T09:21:46.226Z,10.70
2022-10-22T09:22:46.211Z,11.40
2022-10-22T09:23:46.222Z,10.20
2022-10-22T09:24:46.202Z,13.80
2022-10-22T09:25:46.202Z,10.60
2022-10-22T09:26:46.215Z,11.90
2022-10-22T09:27:46.166Z,10.70
2022-10-22T09:28:46.175Z,11.40
2022-10-22T09:29:46.154Z,10.70
2022-10-22T09:30:46.242Z,8.30
2022-10-22T09:31:46.214Z,10.10
2022-10-22T09:32:46.144Z,10.90
2022-10-22T09:33:46.165Z,14.60
2022-10-22T09:34:46.138Z,10.10
2022-10-22T09:35:46.133Z,12.50
2022-10-22T09:36:46.112Z,10.10
2022-10-22T09:37:46.102Z,10.90
2022-10-22T09:38:46.116Z,12.70
2022-10-22T09:39:46.083Z,7.30
2022-10-22T09:40:46.079Z,9.30
2022-10-22T09:41:46.109Z,9.40
2022-10-22T09:42:46.069Z,10.20
2022-10-22T09:43:46.056Z,9.70
2022-10-22T09:44:47.783Z,10.60
2022-10-22T09:45:47.044Z,10.30
2022-10-22T09:46:46.040Z,9.60
2022-10-22T09:48:01.081Z,7.20
2022-10-22T09:48:48.017Z,11.60
2022-10-22T09:49:46.019Z,7.90
2022-10-22T09:50:46.025Z,9.00
2022-10-22T09:51:46.007Z,11.70
2022-10-22T09:52:46.022Z,11.10
2022-10-22T09:53:46.034Z,8.10
2022-10-22T09:54:46.089Z,9.80
2022-10-22T09:55:46.038Z,8.40
2022-10-22T09:56:45.984Z,10.60
2022-10-22T09:57:46.221Z,8.30
2022-10-22T09:58:45.965Z,9.40
2022-10-22T09:59:46.053Z,10.40
2022-10-22T10:00:45.969Z,9.20
2022-10-22T10:01:45.969Z,8.90
2022-10-22T10:02:45.973Z,8.40
2022-10-22T10:03:45.941Z,10.70
2022-10-22T10:04:45.933Z,8.50
2022-10-22T10:05:45.938Z,8.20
2022-10-22T10:06:45.927Z,10.60
2022-10-22T10:07:45.927Z,9.60
2022-10-22T10:08:45.972Z,8.40
2022-10-22T10:09:45.878Z,7.90
2022-10-22T10:10:45.903Z,10.10
2022-10-22T10:11:45.890Z,8.80
2022-10-22T10:13:45.864Z,7.90
2022-10-22T10:14:45.855Z,8.20
2022-10-22T10:15:45.855Z,7.80
2022-10-22T10:16:45.845Z,8.90
2022-10-22T10:17:45.840Z,9.80
2022-10-22T10:18:45.859Z,8.60
2022-10-22T10:19:45.811Z,8.00
2022-10-22T10:20:45.833Z,8.40
2022-10-22T10:21:45.822Z,5.30
2022-10-22T10:22:45.821Z,8.00
2022-10-22T10:23:45.795Z,7.10
2022-10-22T10:24:45.782Z,8.70
2022-10-22T10:25:45.772Z,7.60
2022-10-22T10:26:45.767Z,10.60
2022-10-22T10:27:45.794Z,7.20
2022-10-22T10:28:45.759Z,7.30
2022-10-22T10:29:45.756Z,9.30
2022-10-22T10:30:45.747Z,6.10
2022-10-22T10:31:45.739Z,6.50
2022-10-22T10:32:45.735Z,5.70
2022-10-22T10:33:45.750Z,7.50
2022-10-22T10:34:45.761Z,9.00
2022-10-22T10:35:45.720Z,9.10
2022-10-22T10:36:45.721Z,6.80
2022-10-22T10:37:45.904Z,7.00
2022-10-22T10:38:45.756Z,7.50
2022-10-22T10:39:45.683Z,7.50
2022-10-22T10:40:45.689Z,8.40
2022-10-22T10:41:45.692Z,11.30
2022-10-22T10:42:45.664Z,5.30
2022-10-22T10:43:45.816Z,6.00
2022-10-22T10:44:45.749Z,6.80
2022-10-22T10:45:45.633Z,6.00
2022-10-22T10:46:45.655Z,6.50
2022-10-22T10:47:45.643Z,6.80
2022-10-22T10:48:45.626Z,6.10
2022-10-22T10:49:45.638Z,5.80
2022-10-22T10:50:45.602Z,6.30
2022-10-22T10:51:45.598Z,5.60
2022-10-22T10:52:45.619Z,4.30
2022-10-22T10:53:45.588Z,6.00
2022-10-22T10:54:45.629Z,4.90
2022-10-22T10:55:45.584Z,5.30
2022-10-22T10:56:45.576Z,3.90
2022-10-22T10:57:46.094Z,6.40
2022-10-22T10:58:45.595Z,5.00
2022-10-22T10:59:45.595Z,6.50
2022-10-22T11:00:45.555Z,8.00
2022-10-22T11:01:46.210Z,3.80
2022-10-22T11:02:45.616Z,5.80
2022-10-22T11:03:45.554Z,6.00
2022-10-22T11:04:45.557Z,6.90
2022-10-22T11:05:45.547Z,6.90
2022-10-22T11:06:45.514Z,5.80
2022-10-22T11:07:45.654Z,5.70
2022-10-22T11:08:45.585Z,4.40
2022-10-22T11:09:45.561Z,6.70
2022-10-22T11:10:45.493Z,9.20
2022-10-22T11:11:45.488Z,7.00
2022-10-22T11:12:45.506Z,5.80
2022-10-22T11:13:45.465Z,5.10
2022-10-22T11:14:45.477Z,4.70
2022-10-22T11:15:45.529Z,5.40
2022-10-22T11:16:45.443Z,6.50
2022-10-22T11:17:45.452Z,5.60
2022-10-22T11:18:45.449Z,6.40
2022-10-22T11:19:51.537Z,5.70
2022-10-22T11:20:47.443Z,5.20
2022-10-22T11:21:45.440Z,5.00
2022-10-22T11:23:13.279Z,6.40
2022-10-22T11:23:47.479Z,3.90
2022-10-22T11:24:45.433Z,6.70
2022-10-22T11:25:45.401Z,6.70
2022-10-22T11:26:45.398Z,7.00
2022-10-22T11:28:18.003Z,5.70
2022-10-22T11:28:45.382Z,3.70
2022-10-22T11:29:45.370Z,5.80
2022-10-22T11:30:45.405Z,5.40
2022-10-22T11:31:46.140Z,6.70
2022-10-22T11:32:45.352Z,6.50
2022-10-22T11:33:45.362Z,5.10
2022-10-22T11:34:45.403Z,7.30
2022-10-22T11:35:45.338Z,7.60
2022-10-22T11:36:45.348Z,7.50
2022-10-22T11:37:45.341Z,7.40
2022-10-22T11:38:45.304Z,7.20
2022-10-22T11:39:45.329Z,9.10
2022-10-22T11:40:45.320Z,5.70
2022-10-22T11:41:46.306Z,5.70
2022-10-22T11:42:45.270Z,4.70
2022-10-22T11:43:45.294Z,7.70
2022-10-22T11:44:45.312Z,4.40
2022-10-22T11:45:45.313Z,7.30
2022-10-22T11:46:45.295Z,7.00
2022-10-22T11:47:45.275Z,4.60
2022-10-22T11:48:46.063Z,8.20
2022-10-22T11:49:45.263Z,3.90
2022-10-22T11:50:45.238Z,6.00
2022-10-22T11:51:46.125Z,7.20
2022-10-22T11:52:45.212Z,6.70
2022-10-22T11:53:45.196Z,11.90
2022-10-22T11:54:45.234Z,5.90
2022-10-22T11:55:45.206Z,10.40
2022-10-22T11:56:45.205Z,6.80
2022-10-22T11:57:45.182Z,5.40
2022-10-22T11:58:45.176Z,6.80
2022-10-22T11:59:45.176Z,7.10
2022-10-22T12:00:45.166Z,3.20
2022-10-22T12:01:45.243Z,5.90
2022-10-22T12:02:45.347Z,6.80
2022-10-22T12:03:45.145Z,4.40
2022-10-22T12:04:45.275Z,7.40
2022-10-22T12:05:45.120Z,4.40
2022-10-22T12:06:45.144Z,3.60
2022-10-22T12:07:45.114Z,8.10
2022-10-22T12:08:45.150Z,19.90
2022-10-22T12:09:45.124Z,6.80
2022-10-22T12:10:45.107Z,12.00
2022-10-22T12:11:45.093Z,12.90
2022-10-22T12:12:45.121Z,10.40
2022-10-22T12:13:45.084Z,8.90
2022-10-22T12:14:45.079Z,10.80
2022-10-22T12:15:45.195Z,11.30
2022-10-22T12:16:55.613Z,9.80
2022-10-22T12:17:47.081Z,5.50
2022-10-22T12:18:45.057Z,6.50
2022-10-22T12:19:45.045Z,6.90
2022-10-22T12:20:45.047Z,11.40
2022-10-22T12:21:45.056Z,7.60
2022-10-22T12:22:45.044Z,5.90
2022-10-22T12:23:45.201Z,7.20
2022-10-22T12:24:45.046Z,4.90
2022-10-22T12:25:46.006Z,8.20
2022-10-22T12:26:45.006Z,7.40
2022-10-22T12:27:45.075Z,5.10
2022-10-22T12:28:45.027Z,4.20
2022-10-22T12:29:45.036Z,5.20
2022-10-22T12:30:44.970Z,4.60
2022-10-22T12:31:44.957Z,6.60
2022-10-22T12:32:44.971Z,10.00
2022-10-22T12:33:44.950Z,6.90
2022-10-22T12:34:45.137Z,5.40
2022-10-22T12:35:45.629Z,7.90
2022-10-22T12:36:44.934Z,5.60
2022-10-22T12:37:45.194Z,6.50
2022-10-22T12:38:44.933Z,5.10
2022-10-22T12:39:44.906Z,6.00
2022-10-22T12:40:47.684Z,5.70
2022-10-22T12:41:44.935Z,5.10
2022-10-22T12:42:44.881Z,4.80
2022-10-22T12:43:44.878Z,8.60
2022-10-22T12:44:44.913Z,5.40
2022-10-22T12:45:44.884Z,5.30
2022-10-22T12:46:44.895Z,5.50
2022-10-22T12:47:44.861Z,6.40
2022-10-22T12:48:44.889Z,6.50
2022-10-22T12:49:44.902Z,6.10
2022-10-22T12:50:44.866Z,3.60
2022-10-22T12:51:44.844Z,6.60
2022-10-22T12:52:44.845Z,4.90
2022-10-22T12:53:44.865Z,6.60
2022-10-22T12:54:44.833Z,4.10
2022-10-22T12:55:44.826Z,3.40
2022-10-22T12:56:44.813Z,5.30
2022-10-22T12:57:44.827Z,4.50
2022-10-22T12:58:44.827Z,4.50
2022-10-22T12:59:48.824Z,6.20
2022-10-22T13:00:46.889Z,5.10
2022-10-22T13:01:44.788Z,4.80
2022-10-22T13:02:44.786Z,5.00
2022-10-22T13:03:44.801Z,4.80
2022-10-22T13:04:44.801Z,3.40
2022-10-22T13:05:44.764Z,5.20
2022-10-22T13:06:46.124Z,5.10
2022-10-22T13:07:44.760Z,4.20
2022-10-22T13:08:46.733Z,5.00
2022-10-22T13:09:44.737Z,4.80
2022-10-22T13:10:44.736Z,4.60
2022-10-22T13:11:44.738Z,4.90
2022-10-22T13:12:44.721Z,5.60
2022-10-22T13:13:44.763Z,5.50
2022-10-22T13:14:44.736Z,4.00
2022-10-22T13:15:44.701Z,11.40
2022-10-22T13:16:44.714Z,3.20
2022-10-22T13:17:45.061Z,3.80
2022-10-22T13:18:44.713Z,4.60
2022-10-22T13:19:44.700Z,5.90
2022-10-22T13:20:44.688Z,3.00
2022-10-22T13:21:44.675Z,4.70
2022-10-22T13:22:44.657Z,4.90
2022-10-22T13:23:44.768Z,5.20
2022-10-22T13:24:45.056Z,7.20
2022-10-22T13:25:44.661Z,6.10
2022-10-22T13:26:44.623Z,4.20
2022-10-22T13:27:44.662Z,4.20
2022-10-22T13:28:44.623Z,3.60
2022-10-22T13:29:44.628Z,3.70
2022-10-22T13:30:44.589Z,3.40
2022-10-22T13:31:44.686Z,5.10
2022-10-22T13:32:44.606Z,5.40
2022-10-22T13:33:44.649Z,4.70
2022-10-22T13:34:44.831Z,3.60
2022-10-22T13:35:45.668Z,6.90
2022-10-22T13:36:44.597Z,3.90
2022-10-22T13:37:44.593Z,4.70
2022-10-22T13:38:44.565Z,5.90
2022-10-22T13:39:44.553Z,4.50
2022-10-22T13:40:44.547Z,4.60
2022-10-22T13:41:44.549Z,4.00
2022-10-22T13:42:44.812Z,5.60
2022-10-22T13:43:44.523Z,7.40
2022-10-22T13:44:44.545Z,3.60
2022-10-22T13:45:44.512Z,6.30
2022-10-22T13:46:44.512Z,4.90
2022-10-22T13:47:44.501Z,4.90
2022-10-22T13:48:44.521Z,5.50
2022-10-22T13:49:44.656Z,4.30
2022-10-22T13:50:44.489Z,4.50
2022-10-22T13:51:44.473Z,7.50
2022-10-22T13:52:44.523Z,2.90
2022-10-22T13:53:44.482Z,4.90
2022-10-22T13:54:46.905Z,5.80
2022-10-22T13:55:44.453Z,6.00
2022-10-22T13:56:44.497Z,5.20
2022-10-22T13:57:44.476Z,7.50
2022-10-22T13:58:44.473Z,5.40
2022-10-22T13:59:44.465Z,3.50
2022-10-22T14:00:44.584Z,5.90
2022-10-22T14:01:44.498Z,4.40
2022-10-22T14:02:44.539Z,5.70
2022-10-22T14:03:44.451Z,7.20
2022-10-22T14:04:44.419Z,4.30
2022-10-22T14:05:44.412Z,6.00
2022-10-22T14:06:44.421Z,7.90
2022-10-22T14:07:44.667Z,8.50
2022-10-22T14:08:44.467Z,8.60
2022-10-22T14:09:44.375Z,5.60
2022-10-22T14:10:44.475Z,4.00
2022-10-22T14:11:44.407Z,6.20
2022-10-22T14:12:44.384Z,5.90
2022-10-22T14:13:44.359Z,5.20
2022-10-22T14:14:44.437Z,5.10
2022-10-22T14:15:44.363Z,4.70
2022-10-22T14:16:44.372Z,4.20
2022-10-22T14:17:44.578Z,5.10
2022-10-22T14:18:44.340Z,3.50
2022-10-22T14:19:44.340Z,6.50
2022-10-22T14:20:44.310Z,5.50
2022-10-22T14:21:44.328Z,5.60
2022-10-22T14:22:44.300Z,7.30
2022-10-22T14:23:44.316Z,6.50
2022-10-22T14:24:44.292Z,4.80
2022-10-22T14:25:44.374Z,7.00
2022-10-22T14:26:44.349Z,5.50
2022-10-22T14:27:44.409Z,7.40
2022-10-22T14:29:07.974Z,6.20
2022-10-22T14:29:46.269Z,5.20
2022-10-22T14:30:44.259Z,5.30
2022-10-22T14:31:44.890Z,6.90
2022-10-22T14:32:44.321Z,6.20
2022-10-22T14:33:44.229Z,4.00
2022-10-22T14:34:44.238Z,4.80
2022-10-22T14:35:44.223Z,6.90
2022-10-22T14:36:44.411Z,6.60
2022-10-22T14:37:45.292Z,6.90
2022-10-22T14:38:44.214Z,6.90
2022-10-22T14:39:44.221Z,5.50
2022-10-22T14:40:44.209Z,6.70
2022-10-22T14:41:44.203Z,4.80
2022-10-22T14:42:44.415Z,3.60
2022-10-22T14:43:44.172Z,4.00
2022-10-22T14:44:44.205Z,5.40
2022-10-22T14:45:44.224Z,6.40
2022-10-22T14:46:44.469Z,6.60
2022-10-22T14:47:44.168Z,8.10
2022-10-22T14:48:44.160Z,6.80
2022-10-22T14:49:44.280Z,5.40
2022-10-22T14:50:45.163Z,5.60
2022-10-22T14:51:44.134Z,5.50
2022-10-22T14:52:44.547Z,3.30
2022-10-22T14:53:44.126Z,6.60
2022-10-22T14:54:44.141Z,7.40
2022-10-22T14:55:44.139Z,6.70
2022-10-22T14:56:44.107Z,5.50
2022-10-22T14:57:44.562Z,5.30
2022-10-22T14:58:44.093Z,7.90
2022-10-22T14:59:44.101Z,4.00
2022-10-22T15:00:44.102Z,5.30
2022-10-22T15:01:44.070Z,5.70
2022-10-22T15:02:44.444Z,6.00
2022-10-22T15:03:44.057Z,9.60
2022-10-22T15:04:44.054Z,5.60
2022-10-22T15:05:44.430Z,5.20
2022-10-22T15:06:44.042Z,5.40
2022-10-22T15:07:44.364Z,7.20
2022-10-22T15:08:44.102Z,6.50
2022-10-22T15:09:44.035Z,7.10
2022-10-22T15:10:44.013Z,3.60
2022-10-22T15:11:44.027Z,5.80
2022-10-22T15:12:43.995Z,6.80
2022-10-22T15:13:43.995Z,5.20
2022-10-22T15:14:44.007Z,5.20
2022-10-22T15:15:43.979Z,5.30
2022-10-22T15:16:44.023Z,6.60
2022-10-22T15:17:44.274Z,6.00
2022-10-22T15:18:43.955Z,4.10
2022-10-22T15:19:44.011Z,5.50
2022-10-22T15:20:43.975Z,6.50
2022-10-22T15:21:43.968Z,8.20
2022-10-22T15:22:44.194Z,5.20
2022-10-22T15:23:43.922Z,5.60
2022-10-22T15:24:43.946Z,6.70
2022-10-22T15:25:43.916Z,5.10
2022-10-22T15:26:43.902Z,5.70
2022-10-22T15:27:47.589Z,4.70
2022-10-22T15:28:45.890Z,7.60
2022-10-22T15:29:43.878Z,5.20
2022-10-22T15:30:43.889Z,4.60
2022-10-22T15:31:43.962Z,6.40
2022-10-22T15:32:44.064Z,5.50
2022-10-22T15:33:43.865Z,4.60
2022-10-22T15:34:43.869Z,5.40
2022-10-22T15:35:43.889Z,8.40
2022-10-22T15:36:43.842Z,4.70
2022-10-22T15:37:43.965Z,6.20
2022-10-22T15:38:43.837Z,5.30
2022-10-22T15:39:43.856Z,5.80
2022-10-22T15:40:43.821Z,6.50
2022-10-22T15:41:43.813Z,6.10
2022-10-22T15:42:44.033Z,6.40
2022-10-22T15:43:44.663Z,6.40
2022-10-22T15:44:43.803Z,6.70
2022-10-22T15:45:43.790Z,7.20
2022-10-22T15:46:43.891Z,9.20
2022-10-22T15:47:47.305Z,24.50
2022-10-22T15:48:44.809Z,19.50
2022-10-22T15:49:43.775Z,7.00
2022-10-22T15:50:43.806Z,5.50
2022-10-22T15:51:43.755Z,6.60
2022-10-22T15:52:43.747Z,5.40
2022-10-22T15:53:43.810Z,5.10
2022-10-22T15:54:43.873Z,7.60
2022-10-22T15:55:43.755Z,6.10
2022-10-22T15:56:43.775Z,5.00
2022-10-22T15:57:44.463Z,9.30
2022-10-22T15:58:43.847Z,7.30
2022-10-22T15:59:43.761Z,7.10
2022-10-22T16:00:43.792Z,9.90
2022-10-22T16:01:43.717Z,9.40
2022-10-22T16:02:43.717Z,8.40
2022-10-22T16:03:43.736Z,5.20
2022-10-22T16:04:43.687Z,7.40
2022-10-22T16:05:43.729Z,7.10
2022-10-22T16:06:43.691Z,7.60
2022-10-22T16:07:44.038Z,11.20
2022-10-22T16:08:43.738Z,6.90
2022-10-22T16:09:43.669Z,7.70
2022-10-22T16:10:43.649Z,6.50
2022-10-22T16:11:43.699Z,10.20
2022-10-22T16:12:43.748Z,6.90
2022-10-22T16:13:43.661Z,8.30
2022-10-22T16:14:43.636Z,8.70
2022-10-22T16:15:43.601Z,10.40
2022-10-22T16:16:43.627Z,6.30
2022-10-22T16:17:43.600Z,9.10
2022-10-22T16:18:43.584Z,7.10
2022-10-22T16:19:43.856Z,14.40
2022-10-22T16:20:43.611Z,11.20
2022-10-22T16:21:43.704Z,10.00
2022-10-22T16:22:43.713Z,9.70
2022-10-22T16:23:43.553Z,6.80
2022-10-22T16:24:43.569Z,6.70
2022-10-22T16:25:43.552Z,11.70
2022-10-22T16:26:43.664Z,11.10
2022-10-22T16:27:44.188Z,9.20
2022-10-22T16:28:43.520Z,10.30
2022-10-22T16:29:43.490Z,6.30
2022-10-22T16:30:43.522Z,9.60
2022-10-22T16:31:43.534Z,7.20
2022-10-22T16:32:43.742Z,9.00
2022-10-22T16:33:46.453Z,7.90
2022-10-22T16:34:45.488Z,10.00
2022-10-22T16:35:43.504Z,8.80
2022-10-22T16:36:43.479Z,9.20
2022-10-22T16:37:43.986Z,7.90
2022-10-22T16:38:43.446Z,9.60
2022-10-22T16:39:43.470Z,8.90
2022-10-22T16:40:43.486Z,8.20
2022-10-22T16:41:43.488Z,11.10
2022-10-22T16:42:43.433Z,8.60
2022-10-22T16:43:43.412Z,9.00
2022-10-22T16:44:43.404Z,9.40
2022-10-22T16:45:43.448Z,7.60
2022-10-22T16:46:43.415Z,11.30
2022-10-22T16:47:43.555Z,10.90
2022-10-22T16:48:43.432Z,9.60
2022-10-22T16:49:43.508Z,11.30
2022-10-22T16:50:43.432Z,9.90
2022-10-22T16:51:43.356Z,8.70
2022-10-22T16:52:43.381Z,11.50
2022-10-22T16:53:43.377Z,13.30
2022-10-22T16:54:43.332Z,10.50
2022-10-22T16:55:43.312Z,8.10
2022-10-22T16:56:43.333Z,13.80
2022-10-22T16:57:43.610Z,8.00
2022-10-22T16:58:43.309Z,8.70
2022-10-22T16:59:43.301Z,14.00
2022-10-22T17:00:43.390Z,7.70
2022-10-22T17:01:43.345Z,12.30
2022-10-22T17:02:43.658Z,13.40
2022-10-22T17:03:43.282Z,10.50
2022-10-22T17:04:43.262Z,11.70
2022-10-22T17:05:43.281Z,15.50
2022-10-22T17:06:43.256Z,14.10
2022-10-22T17:07:43.244Z,11.30
2022-10-22T17:08:43.361Z,10.70
2022-10-22T17:09:43.252Z,11.40
2022-10-22T17:10:43.259Z,10.20
2022-10-22T17:11:44.943Z,12.90
2022-10-22T17:12:43.489Z,10.10
2022-10-22T17:13:43.214Z,10.90
2022-10-22T17:14:43.433Z,12.40
2022-10-22T17:15:43.226Z,11.10
2022-10-22T17:16:43.206Z,9.00
2022-10-22T17:17:43.212Z,9.50
2022-10-22T17:18:43.270Z,10.40
2022-10-22T17:19:43.197Z,9.70
2022-10-22T17:20:43.247Z,12.50
2022-10-22T17:21:43.229Z,9.60
2022-10-22T17:22:43.559Z,9.60
2022-10-22T17:23:43.161Z,10.10
2022-10-22T17:24:43.446Z,8.50
2022-10-22T17:25:43.258Z,9.20
2022-10-22T17:26:43.154Z,11.50
2022-10-22T17:27:43.450Z,10.40
2022-10-22T17:28:43.676Z,8.40
2022-10-22T17:29:43.112Z,8.50
2022-10-22T17:30:43.121Z,11.40
2022-10-22T17:31:43.211Z,9.20
2022-10-22T17:32:43.167Z,8.30
2022-10-22T17:33:43.080Z,8.60
2022-10-22T17:34:43.082Z,10.00
2022-10-22T17:35:43.063Z,8.80
2022-10-22T17:36:43.093Z,7.70
2022-10-22T17:37:43.491Z,7.90
2022-10-22T17:38:43.065Z,11.70
2022-10-22T17:39:43.063Z,10.20
2022-10-22T17:40:43.299Z,10.20
2022-10-22T17:41:43.055Z,8.60
2022-10-22T17:42:43.297Z,13.40
2022-10-22T17:43:43.079Z,9.70
2022-10-22T17:44:43.054Z,12.50
2022-10-22T17:45:43.007Z,8.40
2022-10-22T17:46:43.048Z,10.60
2022-10-22T17:47:43.218Z,11.40
2022-10-22T17:48:43.041Z,11.50
2022-10-22T17:49:43.007Z,13.50
2022-10-22T17:50:46.910Z,14.00
2022-10-22T17:51:44.968Z,9.20
2022-10-22T17:52:43.301Z,13.90
2022-10-22T17:53:43.121Z,11.20
2022-10-22T17:54:42.968Z,7.90
2022-10-22T17:55:42.978Z,11.30
2022-10-22T17:56:42.948Z,14.10
2022-10-22T17:57:42.962Z,10.80
2022-10-22T17:58:43.796Z,12.30
2022-10-22T17:59:43.002Z,13.80